createdAt,value
2018-06-25T00:01:27.742Z,5.07
2018-06-25T00:03:56.079Z,6.53
2018-06-25T00:06:24.125Z,6.03
2018-06-25T00:08:52.468Z,6.17
2018-06-25T00:11:20.776Z,6.40
2018-06-25T00:13:49.144Z,8.10
2018-06-25T00:16:17.461Z,6.83
2018-06-25T00:18:45.535Z,6.43
2018-06-25T00:21:13.602Z,6.57
2018-06-25T00:23:41.685Z,8.33
2018-06-25T00:26:09.726Z,8.67
2018-06-25T00:28:38.067Z,6.03
2018-06-25T00:31:06.404Z,8.30
2018-06-25T00:33:34.736Z,5.23
2018-06-25T00:36:03.066Z,8.07
2018-06-25T00:38:31.139Z,7.63
2018-06-25T00:40:59.451Z,8.43
2018-06-25T00:43:27.791Z,7.57
2018-06-25T00:45:55.838Z,7.03
2018-06-25T00:48:24.180Z,11.30
2018-06-25T00:50:52.507Z,7.17
2018-06-25T00:53:20.839Z,8.20
2018-06-25T00:55:49.186Z,6.07
2018-06-25T00:58:17.254Z,7.93
2018-06-25T01:00:45.295Z,11.20
2018-06-25T01:03:13.620Z,9.73
2018-06-25T01:05:41.927Z,11.33
2018-06-25T01:08:10.279Z,11.03
2018-06-25T01:10:38.591Z,11.07
2018-06-25T01:13:06.953Z,8.30
2018-06-25T01:15:35.263Z,7.27
2018-06-25T01:18:03.631Z,12.53
2018-06-25T01:20:31.960Z,11.27
2018-06-25T01:23:00.304Z,9.93
2018-06-25T01:25:28.611Z,6.33
2018-06-25T01:27:56.910Z,9.27
2018-06-25T01:30:25.240Z,8.73
2018-06-25T01:32:53.551Z,8.70
2018-06-25T01:35:21.880Z,9.43
2018-06-25T01:37:50.191Z,8.10
2018-06-25T01:40:18.524Z,8.67
2018-06-25T01:42:46.831Z,7.83
2018-06-25T01:45:15.184Z,7.33
2018-06-25T01:47:43.599Z,8.80
2018-06-25T01:50:11.951Z,8.57
2018-06-25T01:52:40.296Z,8.90
2018-06-25T01:55:08.653Z,7.80
2018-06-25T01:57:36.732Z,11.67
2018-06-25T02:00:04.958Z,10.17
2018-06-25T02:02:34.298Z,9.00
2018-06-25T02:05:02.795Z,11.77
2018-06-25T02:07:30.872Z,10.93
2018-06-25T02:09:59.231Z,8.20
2018-06-25T02:12:27.602Z,8.50
2018-06-25T02:14:55.946Z,8.60
2018-06-25T02:17:24.302Z,11.37
2018-06-25T02:19:52.636Z,12.17
2018-06-25T02:22:21.018Z,9.87
2018-06-25T02:24:49.372Z,10.70
2018-06-25T02:27:17.747Z,9.97
2018-06-25T02:29:46.083Z,11.03
2018-06-25T02:32:14.443Z,11.97
2018-06-25T02:34:42.773Z,14.00
2018-06-25T02:37:11.152Z,11.17
2018-06-25T02:39:39.502Z,8.90
2018-06-25T02:42:07.892Z,13.07
2018-06-25T02:44:36.222Z,9.60
2018-06-25T02:47:04.618Z,9.37
2018-06-25T02:49:32.984Z,10.93
2018-06-25T02:52:01.353Z,10.10
2018-06-25T02:54:29.688Z,9.77
2018-06-25T02:56:58.064Z,11.67
2018-06-25T02:59:26.395Z,12.83
2018-06-25T03:01:54.759Z,10.40
2018-06-25T03:04:23.104Z,10.90
2018-06-25T03:06:51.461Z,9.23
2018-06-25T03:09:19.523Z,11.40
2018-06-25T03:11:47.880Z,10.37
2018-06-25T03:14:16.240Z,9.47
2018-06-25T03:16:44.607Z,11.87
2018-06-25T03:19:12.948Z,13.30
2018-06-25T03:21:41.328Z,12.33
2018-06-25T03:24:09.386Z,12.07
2018-06-25T03:26:37.751Z,12.43
2018-06-25T03:29:06.088Z,8.57
2018-06-25T03:31:34.456Z,9.07
2018-06-25T03:34:02.786Z,9.80
2018-06-25T03:36:31.173Z,13.07
2018-06-25T03:38:59.504Z,9.07
2018-06-25T03:41:27.875Z,11.63
2018-06-25T03:43:56.202Z,12.00
2018-06-25T03:46:24.704Z,11.53
2018-06-25T03:48:53.044Z,10.33
2018-06-25T03:51:21.433Z,11.87
2018-06-25T03:53:49.812Z,11.13
2018-06-25T03:56:18.151Z,9.80
2018-06-25T03:58:46.508Z,11.97
2018-06-25T04:01:14.839Z,10.67
2018-06-25T04:03:43.399Z,9.70
2018-06-25T04:06:11.734Z,11.27
2018-06-25T04:08:40.099Z,12.63
2018-06-25T04:11:08.435Z,10.70
2018-06-25T04:13:36.816Z,12.30
2018-06-25T04:16:05.175Z,12.03
2018-06-25T04:18:33.527Z,14.50
2018-06-25T04:21:01.875Z,14.13
2018-06-25T04:23:30.236Z,12.27
2018-06-25T04:25:58.608Z,13.53
2018-06-25T04:28:26.959Z,11.37
2018-06-25T04:30:55.039Z,15.53
2018-06-25T04:33:23.123Z,14.33
2018-06-25T04:35:51.463Z,12.07
2018-06-25T04:38:19.851Z,13.27
2018-06-25T04:40:48.188Z,14.23
2018-06-25T04:43:16.584Z,12.00
2018-06-25T04:45:44.916Z,14.73
2018-06-25T04:48:13.291Z,16.83
2018-06-25T04:50:41.351Z,17.03
2018-06-25T04:53:09.707Z,12.07
2018-06-25T04:55:38.052Z,11.10
2018-06-25T04:58:06.463Z,13.57
2018-06-25T05:00:34.795Z,13.20
2018-06-25T05:03:03.290Z,12.87
2018-06-25T05:05:31.659Z,14.43
2018-06-25T05:08:00.040Z,13.80
2018-06-25T05:10:28.383Z,15.07
2018-06-25T05:12:56.792Z,12.07
2018-06-25T05:15:25.139Z,18.07
2018-06-25T05:17:53.515Z,12.90
2018-06-25T05:20:21.872Z,16.47
2018-06-25T05:22:49.978Z,13.47
2018-06-25T05:25:18.332Z,12.27
2018-06-25T05:27:46.720Z,11.90
2018-06-25T05:30:15.064Z,13.83
2018-06-25T05:32:43.443Z,16.23
2018-06-25T05:35:11.784Z,13.63
2018-06-25T05:37:40.128Z,12.83
2018-06-25T05:40:08.544Z,13.87
2018-06-25T05:42:36.626Z,12.70
2018-06-25T05:45:05.024Z,14.10
2018-06-25T05:47:33.470Z,11.70
2018-06-25T05:50:01.563Z,16.83
2018-06-25T05:52:29.917Z,14.57
2018-06-25T05:54:58.299Z,15.43
2018-06-25T05:57:26.379Z,12.23
2018-06-25T05:59:54.467Z,13.40
2018-06-25T06:02:22.574Z,14.13
2018-06-25T06:04:50.963Z,13.07
2018-06-25T06:07:19.302Z,13.93
2018-06-25T06:09:47.695Z,12.30
2018-06-25T06:12:16.035Z,14.30
2018-06-25T06:14:44.168Z,14.07
2018-06-25T06:17:12.521Z,12.43
2018-06-25T06:19:40.898Z,9.57
2018-06-25T06:22:09.243Z,9.80
2018-06-25T06:24:37.644Z,11.13
2018-06-25T06:27:05.999Z,9.43
2018-06-25T06:29:34.353Z,7.93
2018-06-25T06:32:02.736Z,7.87
2018-06-25T06:34:31.073Z,8.30
2018-06-25T06:36:59.407Z,8.07
2018-06-25T06:39:27.763Z,7.03
2018-06-25T06:41:56.091Z,6.00
2018-06-25T06:44:24.179Z,8.00
2018-06-25T06:46:52.704Z,9.77
2018-06-25T06:49:25.035Z,6.20
2018-06-25T06:51:53.788Z,7.47
2018-06-25T06:54:22.159Z,8.07
2018-06-25T06:56:50.514Z,10.93
2018-06-25T06:59:18.880Z,7.53
2018-06-25T07:01:47.212Z,8.70
2018-06-25T07:04:15.330Z,8.27
2018-06-25T07:06:43.660Z,8.73
2018-06-25T07:09:13.500Z,9.23
2018-06-25T07:11:42.563Z,8.20
2018-06-25T07:14:10.943Z,8.83
2018-06-25T07:16:40.363Z,7.87
2018-06-25T07:19:08.883Z,8.27
2018-06-25T07:21:37.531Z,12.07
2018-06-25T07:24:05.655Z,8.23
2018-06-25T07:26:33.988Z,9.50
2018-06-25T07:29:02.099Z,10.17
2018-06-25T07:31:30.487Z,13.43
2018-06-25T07:33:58.867Z,11.80
2018-06-25T07:36:27.214Z,11.90
2018-06-25T07:38:55.589Z,13.17
2018-06-25T07:41:24.024Z,13.33
2018-06-25T07:43:52.397Z,11.80
2018-06-25T07:46:20.760Z,11.67
2018-06-25T07:48:49.141Z,11.60
2018-06-25T07:51:17.502Z,12.30
2018-06-25T07:53:45.878Z,12.27
2018-06-25T07:56:14.286Z,12.03
2018-06-25T07:58:42.631Z,13.60
2018-06-25T08:01:10.995Z,9.90
2018-06-25T08:03:39.089Z,9.37
2018-06-25T08:06:07.480Z,7.87
2018-06-25T08:08:35.829Z,12.60
2018-06-25T08:11:03.929Z,12.33
2018-06-25T08:13:32.314Z,9.63
2018-06-25T08:16:00.688Z,13.13
2018-06-25T08:18:29.036Z,12.97
2018-06-25T08:20:57.454Z,12.43
2018-06-25T08:23:25.805Z,12.13
2018-06-25T08:25:53.904Z,10.80
2018-06-25T08:28:22.264Z,12.37
2018-06-25T08:30:50.658Z,12.37
2018-06-25T08:33:19.023Z,11.50
2018-06-25T08:35:47.412Z,9.97
2018-06-25T08:38:15.772Z,11.37
2018-06-25T08:40:43.910Z,8.40
2018-06-25T08:43:12.252Z,11.17
2018-06-25T08:45:40.624Z,11.03
2018-06-25T08:48:08.961Z,8.03
2018-06-25T08:50:37.360Z,10.13
2018-06-25T08:53:05.436Z,9.90
2018-06-25T08:55:33.524Z,9.57
2018-06-25T08:58:01.863Z,9.47
2018-06-25T09:00:30.219Z,8.93
2018-06-25T09:02:58.561Z,9.07
2018-06-25T09:05:26.935Z,8.07
2018-06-25T09:07:55.303Z,10.40
2018-06-25T09:10:23.402Z,9.87
2018-06-25T09:12:51.763Z,11.30
2018-06-25T09:15:19.912Z,10.17
2018-06-25T09:17:48.257Z,12.07
2018-06-25T09:20:16.617Z,16.27
2018-06-25T09:22:45.003Z,9.67
2018-06-25T09:25:13.336Z,10.87
2018-06-25T09:27:48.721Z,9.97
2018-06-25T09:30:17.796Z,9.53
2018-06-25T09:32:46.224Z,8.07
2018-06-25T09:35:14.586Z,9.40
2018-06-25T09:37:42.947Z,11.77
2018-06-25T09:40:11.275Z,9.93
2018-06-25T09:42:39.663Z,7.67
2018-06-25T09:45:09.279Z,8.37
2018-06-25T09:47:37.639Z,6.10
2018-06-25T09:50:06.008Z,7.33
2018-06-25T09:52:34.375Z,8.70
2018-06-25T09:55:02.739Z,8.50
2018-06-25T09:57:31.095Z,7.83
2018-06-25T09:59:59.446Z,8.20
2018-06-25T10:02:27.823Z,7.53
2018-06-25T10:04:56.204Z,10.33
2018-06-25T10:07:24.710Z,5.10
2018-06-25T10:09:52.762Z,6.90
2018-06-25T10:12:21.159Z,10.30
2018-06-25T10:14:49.488Z,6.53
2018-06-25T10:17:17.843Z,9.97
2018-06-25T10:19:46.177Z,7.93
2018-06-25T10:22:14.536Z,8.30
2018-06-25T10:24:42.867Z,8.57
2018-06-25T10:27:11.228Z,6.60
2018-06-25T10:29:39.562Z,9.07
2018-06-25T10:32:07.929Z,8.17
2018-06-25T10:34:36.259Z,7.97
2018-06-25T10:37:05.218Z,7.60
2018-06-25T10:39:33.603Z,8.47
2018-06-25T10:42:02.031Z,8.20
2018-06-25T10:44:30.345Z,7.67
2018-06-25T10:46:58.747Z,10.23
2018-06-25T10:49:27.099Z,7.70
2018-06-25T10:51:55.463Z,7.63
2018-06-25T10:54:23.807Z,5.33
2018-06-25T10:56:52.175Z,6.53
2018-06-25T10:59:20.557Z,6.60
2018-06-25T11:01:48.912Z,7.13
2018-06-25T11:04:17.269Z,11.13
2018-06-25T11:06:45.624Z,8.47
2018-06-25T11:09:13.948Z,9.43
2018-06-25T11:11:42.333Z,10.90
2018-06-25T11:14:10.694Z,9.77
2018-06-25T11:16:39.024Z,10.37
2018-06-25T11:19:07.392Z,7.90
2018-06-25T11:21:35.711Z,8.33
2018-06-25T11:24:04.112Z,8.00
2018-06-25T11:26:33.579Z,7.80
2018-06-25T11:29:01.953Z,6.63
2018-06-25T11:31:30.011Z,7.83
2018-06-25T11:33:58.372Z,7.87
2018-06-25T11:36:26.716Z,5.60
2018-06-25T11:38:55.076Z,6.67
2018-06-25T11:41:23.429Z,6.47
2018-06-25T11:43:51.783Z,4.90
2018-06-25T11:46:20.117Z,10.23
2018-06-25T11:48:48.489Z,8.10
2018-06-25T11:51:16.837Z,7.13
2018-06-25T11:53:44.924Z,7.93
2018-06-25T11:56:13.267Z,8.03
2018-06-25T11:58:41.631Z,5.87
2018-06-25T12:01:09.973Z,8.03
2018-06-25T12:03:38.335Z,7.43
2018-06-25T12:06:06.796Z,10.67
2018-06-25T12:08:35.167Z,8.57
2018-06-25T12:11:03.508Z,5.60
2018-06-25T12:13:31.960Z,7.57
2018-06-25T12:16:00.319Z,7.83
2018-06-25T12:18:28.737Z,6.57
2018-06-25T12:20:57.125Z,9.73
2018-06-25T12:23:25.443Z,5.43
2018-06-25T12:25:53.807Z,8.83
2018-06-25T12:28:22.193Z,7.00
2018-06-25T12:30:50.529Z,6.10
2018-06-25T12:33:18.931Z,8.10
2018-06-25T12:35:47.303Z,7.57
2018-06-25T12:38:16.667Z,6.90
2018-06-25T12:40:45.001Z,9.87
2018-06-25T12:43:13.424Z,6.03
2018-06-25T12:45:41.740Z,6.80
2018-06-25T12:48:09.818Z,9.80
2018-06-25T12:50:38.159Z,6.17
2018-06-25T12:53:06.564Z,8.50
2018-06-25T12:55:34.912Z,8.03
2018-06-25T12:58:03.267Z,6.63
2018-06-25T13:00:31.610Z,8.37
2018-06-25T13:03:00.028Z,7.80
2018-06-25T13:05:28.452Z,9.17
2018-06-25T13:07:56.518Z,10.10
2018-06-25T13:10:24.883Z,4.67
2018-06-25T13:12:53.254Z,6.97
2018-06-25T13:15:21.663Z,5.90
2018-06-25T13:17:49.728Z,6.53
2018-06-25T13:20:17.816Z,5.73
2018-06-25T13:22:46.275Z,7.47
2018-06-25T13:25:14.647Z,4.93
2018-06-25T13:27:42.974Z,8.43
2018-06-25T13:30:11.408Z,10.20
2018-06-25T13:32:39.779Z,9.57
2018-06-25T13:35:08.157Z,8.13
2018-06-25T13:37:36.504Z,8.87
2018-06-25T13:40:05.099Z,10.20
2018-06-25T13:42:33.459Z,7.70
2018-06-25T13:45:01.823Z,7.33
2018-06-25T13:47:30.164Z,7.87
2018-06-25T13:49:58.531Z,7.23
2018-06-25T13:52:26.883Z,6.33
2018-06-25T13:54:55.260Z,6.07
2018-06-25T13:57:23.604Z,8.33
2018-06-25T13:59:51.976Z,6.40
2018-06-25T14:02:20.332Z,5.80
2018-06-25T14:04:48.699Z,7.67
2018-06-25T14:07:17.039Z,5.10
2018-06-25T14:09:45.434Z,6.07
2018-06-25T14:12:13.832Z,5.73
2018-06-25T14:14:42.232Z,8.50
2018-06-25T14:17:10.580Z,8.10
2018-06-25T14:19:38.949Z,6.43
2018-06-25T14:22:07.328Z,5.90
2018-06-25T14:24:40.995Z,7.87
2018-06-25T14:27:10.417Z,6.53
2018-06-25T14:29:38.840Z,6.37
2018-06-25T14:32:41.585Z,5.97
2018-06-25T14:35:15.504Z,6.87
2018-06-25T14:37:44.567Z,8.40
2018-06-25T14:40:13.012Z,5.93
2018-06-25T14:42:41.410Z,7.30
2018-06-25T14:45:10.171Z,6.67
2018-06-25T14:47:38.548Z,9.07
2018-06-25T14:50:06.925Z,6.63
2018-06-25T14:52:35.329Z,5.97
2018-06-25T14:55:03.711Z,7.73
2018-06-25T14:57:32.052Z,6.50
2018-06-25T15:00:00.533Z,5.80
2018-06-25T15:02:29.088Z,5.27
2018-06-25T15:04:57.181Z,7.97
2018-06-25T15:07:25.523Z,6.90
2018-06-25T15:09:53.880Z,8.90
2018-06-25T15:12:22.275Z,9.67
2018-06-25T15:14:50.647Z,6.27
2018-06-25T15:17:19.059Z,7.40
2018-06-25T15:19:47.428Z,7.93
2018-06-25T15:22:15.803Z,8.37
2018-06-25T15:24:44.153Z,7.10
2018-06-25T15:27:12.548Z,7.20
2018-06-25T15:29:40.884Z,10.50
2018-06-25T15:32:09.256Z,7.37
2018-06-25T15:34:37.591Z,6.20
2018-06-25T15:37:05.961Z,7.37
2018-06-25T15:39:34.327Z,6.63
2018-06-25T15:42:02.684Z,8.47
2018-06-25T15:44:31.020Z,7.60
2018-06-25T15:46:59.369Z,9.40
2018-06-25T15:49:27.699Z,9.60
2018-06-25T15:51:55.823Z,9.77
2018-06-25T15:54:24.176Z,10.77
2018-06-25T15:56:52.549Z,7.67
2018-06-25T15:59:20.876Z,9.67
2018-06-25T16:01:49.232Z,7.50
2018-06-25T16:04:17.584Z,7.43
2018-06-25T16:06:46.032Z,8.17
2018-06-25T16:09:14.311Z,8.57
2018-06-25T16:11:42.390Z,4.80
2018-06-25T16:14:10.756Z,9.67
2018-06-25T16:16:39.108Z,6.63
2018-06-25T16:19:07.452Z,7.80
2018-06-25T16:21:35.827Z,7.53
2018-06-25T16:24:04.231Z,7.33
2018-06-25T16:26:32.650Z,9.07
2018-06-25T16:29:01.020Z,8.17
2018-06-25T16:31:29.375Z,8.33
2018-06-25T16:33:57.729Z,8.40
2018-06-25T16:36:26.115Z,7.73
2018-06-25T16:38:54.449Z,9.00
2018-06-25T16:41:22.863Z,8.63
2018-06-25T16:43:51.232Z,8.43
2018-06-25T16:46:19.616Z,10.20
2018-06-25T16:48:47.947Z,9.37
2018-06-25T16:51:16.344Z,8.87
2018-06-25T16:53:44.691Z,9.07
2018-06-25T16:56:13.037Z,9.10
2018-06-25T16:58:41.396Z,9.60
2018-06-25T17:01:09.520Z,7.83
2018-06-25T17:03:37.848Z,10.80
2018-06-25T17:06:05.915Z,7.67
2018-06-25T17:08:34.280Z,6.67
2018-06-25T17:11:02.635Z,10.00
2018-06-25T17:13:31.055Z,9.67
2018-06-25T17:15:59.127Z,15.37
2018-06-25T17:18:27.500Z,7.27
2018-06-25T17:20:55.837Z,12.73
2018-06-25T17:23:24.216Z,8.73
2018-06-25T17:25:52.744Z,7.43
2018-06-25T17:28:21.111Z,7.13
2018-06-25T17:30:49.463Z,7.17
2018-06-25T17:33:17.843Z,9.53
2018-06-25T17:35:46.273Z,6.23
2018-06-25T17:38:14.359Z,8.83
2018-06-25T17:40:42.718Z,11.03
2018-06-25T17:43:10.815Z,12.07
2018-06-25T17:45:39.158Z,8.47
2018-06-25T17:48:07.527Z,10.97
2018-06-25T17:50:35.870Z,9.20
2018-06-25T17:53:04.255Z,13.53
2018-06-25T17:55:32.666Z,10.27
2018-06-25T17:58:01.060Z,8.10
2018-06-25T18:00:29.389Z,8.50
2018-06-25T18:02:57.740Z,9.37
2018-06-25T18:05:25.798Z,8.67
2018-06-25T18:07:54.156Z,7.37
2018-06-25T18:10:22.520Z,6.50
2018-06-25T18:12:50.907Z,8.13
2018-06-25T18:15:19.256Z,13.63
2018-06-25T18:17:47.629Z,10.10
2018-06-25T18:20:16.035Z,9.60
2018-06-25T18:22:44.981Z,12.67
2018-06-25T18:25:13.674Z,10.23
2018-06-25T18:27:42.044Z,6.13
2018-06-25T18:30:10.135Z,8.30
2018-06-25T18:32:43.756Z,9.27
2018-06-25T18:35:12.191Z,8.87
2018-06-25T18:37:40.575Z,9.60
2018-06-25T18:40:08.674Z,9.13
2018-06-25T18:42:37.172Z,7.43
2018-06-25T18:45:05.619Z,6.90
2018-06-25T18:47:33.679Z,8.17
2018-06-25T18:50:02.048Z,9.10
2018-06-25T18:52:30.404Z,10.20
2018-06-25T18:54:58.779Z,10.20
2018-06-25T18:57:27.125Z,14.13
2018-06-25T18:59:55.504Z,11.13
2018-06-25T19:02:23.850Z,6.47
2018-06-25T19:04:53.368Z,9.53
2018-06-25T19:07:21.455Z,8.23
2018-06-25T19:09:49.815Z,9.40
2018-06-25T19:12:17.884Z,10.20
2018-06-25T19:14:46.284Z,7.87
2018-06-25T19:17:14.352Z,7.73
2018-06-25T19:19:42.494Z,8.37
2018-06-25T19:22:10.860Z,10.47
2018-06-25T19:24:39.232Z,8.23
2018-06-25T19:27:07.593Z,10.00
2018-06-25T19:29:35.993Z,9.37
2018-06-25T19:32:05.286Z,9.63
2018-06-25T19:34:33.733Z,9.60
2018-06-25T19:37:01.804Z,9.87
2018-06-25T19:39:30.164Z,9.87
2018-06-25T19:41:58.242Z,9.83
2018-06-25T19:44:26.340Z,9.37
2018-06-25T19:46:54.744Z,10.77
2018-06-25T19:49:23.105Z,6.73
2018-06-25T19:51:52.061Z,8.33
2018-06-25T19:54:20.449Z,9.33
2018-06-25T19:56:48.803Z,9.70
2018-06-25T19:59:17.176Z,9.10
2018-06-25T20:01:45.524Z,10.93
2018-06-25T20:04:14.999Z,8.50
2018-06-25T20:06:43.059Z,9.63
2018-06-25T20:09:12.402Z,14.93
2018-06-25T20:11:41.244Z,10.87
2018-06-25T20:14:09.697Z,10.27
2018-06-25T20:16:38.128Z,9.80
2018-06-25T20:19:06.529Z,10.77
2018-06-25T20:21:34.927Z,9.10
2018-06-25T20:24:03.308Z,9.13
2018-06-25T20:26:31.707Z,8.50
2018-06-25T20:29:00.050Z,9.03
2018-06-25T20:31:28.604Z,11.40
2018-06-25T20:33:56.669Z,9.20
2018-06-25T20:36:24.779Z,7.40
2018-06-25T20:38:53.136Z,9.17
2018-06-25T20:41:21.222Z,8.53
2018-06-25T20:43:49.598Z,9.50
2018-06-25T20:46:17.960Z,12.13
2018-06-25T20:48:46.023Z,12.67
2018-06-25T20:51:14.430Z,9.77
2018-06-25T20:53:42.760Z,13.33
2018-06-25T20:56:11.141Z,12.37
2018-06-25T20:58:39.495Z,10.20
2018-06-25T21:01:07.893Z,10.47
2018-06-25T21:03:36.279Z,8.57
2018-06-25T21:06:04.664Z,12.83
2018-06-25T21:08:33.024Z,11.60
2018-06-25T21:11:01.408Z,10.53
2018-06-25T21:13:29.795Z,13.37
2018-06-25T21:15:58.171Z,9.20
2018-06-25T21:18:28.749Z,10.13
2018-06-25T21:20:57.407Z,10.40
2018-06-25T21:23:25.716Z,11.17
2018-06-25T21:25:53.957Z,13.20
2018-06-25T21:28:22.288Z,13.07
2018-06-25T21:30:50.657Z,11.13
2018-06-25T21:33:18.991Z,14.90
2018-06-25T21:35:47.430Z,11.70
2018-06-25T21:38:15.728Z,8.73
2018-06-25T21:40:44.084Z,10.47
2018-06-25T21:43:12.424Z,11.73
2018-06-25T21:45:40.819Z,10.97
2018-06-25T21:48:08.879Z,13.30
2018-06-25T21:50:36.962Z,12.87
2018-06-25T21:53:05.107Z,13.00
2018-06-25T21:55:33.479Z,12.43
2018-06-25T21:58:01.824Z,13.03
2018-06-25T22:00:41.552Z,11.17
2018-06-25T22:03:09.895Z,12.13
2018-06-25T22:05:38.260Z,10.97
2018-06-25T22:08:06.599Z,14.97
2018-06-25T22:10:34.979Z,11.90
2018-06-25T22:13:03.365Z,11.37
2018-06-25T22:15:31.736Z,11.30
2018-06-25T22:18:00.081Z,14.37
2018-06-25T22:20:28.431Z,11.33
2018-06-25T22:22:58.345Z,10.33
2018-06-25T22:25:28.693Z,10.30
2018-06-25T22:27:59.776Z,11.60
2018-06-25T22:30:29.672Z,11.50
2018-06-25T22:33:00.435Z,12.53
2018-06-25T22:35:31.661Z,13.10
2018-06-25T22:38:02.377Z,10.60
2018-06-25T22:40:30.843Z,14.27
2018-06-25T22:42:59.201Z,9.23
2018-06-25T22:45:27.523Z,10.00
2018-06-25T22:47:55.610Z,10.30
2018-06-25T22:50:23.951Z,16.77
2018-06-25T22:52:52.311Z,13.80
2018-06-25T22:55:20.643Z,14.00
2018-06-25T22:57:49.004Z,13.23
2018-06-25T23:00:17.062Z,14.43
2018-06-25T23:02:45.442Z,11.37
2018-06-25T23:05:13.783Z,15.00
2018-06-25T23:07:42.765Z,13.83
2018-06-25T23:10:11.117Z,14.10
2018-06-25T23:12:39.516Z,16.90
2018-06-25T23:15:07.859Z,10.23
2018-06-25T23:17:36.216Z,12.77
2018-06-25T23:20:04.829Z,13.50
2018-06-25T23:22:33.188Z,10.07
2018-06-25T23:25:01.522Z,14.67
2018-06-25T23:27:29.900Z,15.00
2018-06-25T23:29:58.236Z,11.17
2018-06-25T23:32:26.586Z,12.20
2018-06-25T23:34:54.975Z,12.07
2018-06-25T23:37:23.335Z,13.57
2018-06-25T23:39:51.659Z,12.37
2018-06-25T23:42:20.043Z,11.70
2018-06-25T23:44:48.395Z,14.20
2018-06-25T23:47:16.751Z,12.87
2018-06-25T23:49:45.083Z,13.27
2018-06-25T23:52:13.199Z,15.17
2018-06-25T23:54:41.528Z,10.13
2018-06-25T23:57:09.890Z,11.57
2018-06-25T23:59:38.248Z,13.60
